Daily Weather Observations for Burdell (Townsville)
For Tuesday 5th February 2019

This table is designed for ease of comparison to Bureau of Meteorology recorded weather data.

Station Details Name: BURDELL Lat: -19.24 Lon: 146.69 Height: 8.5 m
Date/Time
EST
Temp
°C
App
Temp
°C
Dew
Point
°C
Rel
Hum
%
Delta-T
°C
Wind Press
QNH
hPa
Press
MSL
hPa
Rain since
9am
mm
Dir  Spd
km/h
Gust
km/h
Spd
kts
Gust
kts
05/11:30pm 25.7 30.7 25.7 100 0.0 SE 15 26 8 14 998.6 998.6 11.7
05/11:00pm 25.8 31.4 25.8 100 0.0 SE 11 16 6 9 999.5 999.5 9.7
05/10:30pm 25.9 30.7 25.9 100 0.0 SE 14 26 8 14 999.5 999.5 7.7
05/10:00pm 26.1 30.5 25.9 99 0.1 SE 20 32 11 17 999.0 999.0 5.6
05/09:30pm 26.0 29.9 25.8 99 0.1 ESE 18 26 10 14 998.3 998.3 4.9
05/09:00pm 25.9 29.0 25.7 99 0.1 SE 23 34 12 18 998.5 998.5 4.6
05/08:30pm 25.8 30.6 25.6 99 0.1 ESE 12 18 7 10 998.4 998.4 4.6
05/08:00pm 25.6 29.7 25.4 99 0.1 SE 17 23 9 13 998.1 998.1 4.6
05/07:30pm 25.7 30.1 25.5 99 0.1 SE 14 21 8 11 997.8 997.8 4.6
05/07:00pm 25.9 29.7 25.7 99 0.1 E 17 29 9 16 997.3 997.3 4.6
05/06:30pm 26.1 29.6 26.1 100 -0.0 E 21 34 11 18 996.9 996.9 4.6
05/06:00pm 26.3 31.3 26.1 99 0.2 E 18 29 10 16 996.7 996.7 4.4
05/05:30pm 26.4 32.3 26.2 99 0.2 SE 8 13 4 7 996.2 996.2 3.8
05/05:00pm 26.3 31.8 26.1 99 0.2 E 10 13 6 7 996.0 996.0 2.6
05/04:30pm 26.3 31.7 26.1 99 0.2 E 12 18 7 10 996.1 996.1 1.8
05/04:00pm 26.8 32.4 26.5 98 0.2 ENE 17 29 9 16 996.0 996.0 1.6
05/03:30pm 27.2 32.3 26.4 96 0.6 NE 14 21 7 11 995.9 995.9 1.6
05/03:00pm 30.3 39.9 27.3 88 2.3 ENE 21 26 12 14 995.6 995.6 0.0
05/02:30pm 30.8 41.3 27.8 86 2.3 ENE 23 34 12 18 995.9 995.9 0.0
05/02:00pm 30.8 42.0 28.1 87 2.1 ENE 20 34 11 18 996.0 996.0 0.0
05/01:30pm 30.4 40.5 27.6 86 2.1 E 20 29 11 16 996.9 996.9 0.0
05/01:00pm 30.2 39.8 27.5 86 2.1 E 21 29 11 16 997.1 997.1 0.0
05/12:30pm 30.2 39.8 27.5 86 2.1 SE 20 29 11 16 997.3 997.3 0.0
05/12:00pm 29.7 38.7 27.3 87 1.8 SE 12 21 7 11 997.9 997.9 0.0
05/11:30am 29.5 38.3 27.5 91 1.5 ESE 13 26 7 14 998.2 998.2 0.0
05/11:00am 28.6 35.5 26.7 91 1.4 SE 14 26 8 14 998.6 998.6 0.0
05/10:30am 28.1 34.4 26.7 92 1.1 SE 18 23 10 13 998.9 998.9 0.0
05/10:00am 27.2 31.6 26.0 94 0.9 SE 20 29 11 16 999.0 999.0 0.0
05/09:30am 26.8 31.9 26.0 96 0.6 SE 14 21 7 11 999.2 999.2 0.0
05/09:00am 26.1 29.6 25.7 98 0.3 SE 21 29 11 16 998.9 998.9 0.0
05/08:30am 25.3 30.5 25.3 100 0.0 SE 13 23 7 13 998.8 998.8 42.2
05/08:00am 25.2 30.5 25.2 100 -0.0 SE 9 16 5 9 998.9 998.9 42.2
05/07:30am 24.9 28.9 24.9 100 -0.0 SE 14 21 8 11 998.4 998.4 41.9
05/07:00am 24.8 29.3 24.8 100 -0.0 SE 10 18 5 10 998.1 998.1 41.7
05/06:30am 24.6 28.5 24.6 100 0.0 SE 13 21 7 11 997.5 997.5 40.4
05/06:00am 24.4 29.7 24.4 100 0.0 SE 4 5 2 3 997.3 997.3 40.4
05/05:30am 24.3 29.2 24.3 100 0.0 SSE 8 13 4 7 997.0 997.0 40.4
05/05:00am 24.3 29.6 24.3 100 0.0 SE 5 8 3 4 996.8 996.8 39.9
05/04:30am 24.3 29.2 24.3 100 0.0 SE 10 16 5 9 996.6 996.6 39.6
05/04:00am 24.3 28.9 24.3 100 0.0 ESE 13 21 7 11 996.8 996.8 39.6
05/03:30am 24.3 27.2 24.3 100 0.0 SE 20 32 11 17 996.9 996.9 39.4
05/03:00am 24.4 28.6 24.4 100 0.0 ESE 12 16 6 9 997.3 997.3 36.1
05/02:30am 24.6 27.2 24.6 100 0.0 SE 21 26 11 14 997.4 997.4 32.8
05/02:00am 24.8 28.0 24.8 100 0.0 SE 20 32 11 17 997.9 997.9 28.7
05/01:30am 24.8 29.2 24.8 100 0.0 SE 16 26 8 14 998.2 998.2 23.6
05/01:00am 24.8 26.6 24.8 100 0.0 SE 24 37 13 20 998.7 998.7 21.9
05/12:30am 24.9 28.7 24.9 100 0.0 SE 23 34 13 18 998.9 998.9 20.1
05/12:00am 25.1 28.6 25.1 100 -0.0 ESE 20 26 11 14 999.1 999.1 19.6
 


NOTE: The apparent temperature specified in the table above is calculated using both the Heat Index and Steadman method. This differs to the Bureau of Meteorology's calculation which uses the Steadman method alone.